Time;durP1;ratioP1;P1;durP2;ratioP2;P2;SDS_P1;SDS_P2;PMS_P1;PMS_P2;Temp;Humidity;BMP_temperature;BMP_pressure;BME280_temperature;BME280_humidity;BME280_pressure;Samples;Min_cycle;Max_cycle;Signal;HPM_P1;HPM_P2
2022/12/30 00:02:09;;;;;;;37.63;19.37;;;6.90;88.90;;;;;;5023055;28;20708;-79
2022/12/30 00:04:38;;;;;;;40.60;19.47;;;6.80;88.80;;;;;;5006046;28;20202;-79
2022/12/30 00:07:07;;;;;;;37.00;17.80;;;6.80;88.70;;;;;;5027026;28;20249;-80
2022/12/30 00:09:36;;;;;;;37.33;18.57;;;6.80;88.60;;;;;;5011168;28;20206;-79
2022/12/30 00:34:22;;;;;;;33.60;17.67;;;6.80;88.50;;;;;;5027829;28;20202;-79
2022/12/30 00:36:51;;;;;;;39.10;18.00;;;6.80;88.40;;;;;;5029396;28;20196;-79
2022/12/30 00:39:22;;;;;;;37.13;17.67;;;6.80;88.30;;;;;;5025105;28;20202;-79
2022/12/30 00:44:36;;;;;;;32.73;17.00;;;6.70;88.30;;;;;;5022935;28;20744;-78
2022/12/30 00:47:05;;;;;;;37.03;17.53;;;6.80;88.30;;;;;;5029493;28;20290;-81
2022/12/30 00:57:53;;;;;;;38.70;18.03;;;6.60;87.90;;;;;;5029617;28;20247;-80
2022/12/30 01:00:21;;;;;;;36.23;18.30;;;6.60;87.80;;;;;;5029386;28;20207;-80
2022/12/30 01:02:49;;;;;;;37.83;18.40;;;6.60;87.80;;;;;;5028984;28;20209;-80
2022/12/30 01:05:18;;;;;;;38.27;18.20;;;6.60;87.90;;;;;;5027359;28;20616;-80
2022/12/30 01:07:47;;;;;;;36.47;17.87;;;6.60;87.90;;;;;;5028855;28;20201;-79
2022/12/30 01:10:17;;;;;;;38.17;18.63;;;6.60;87.90;;;;;;5029195;28;20200;-80
2022/12/30 01:12:45;;;;;;;34.87;17.80;;;6.50;87.90;;;;;;5027576;28;20201;-80
2022/12/30 01:15:13;;;;;;;36.33;18.60;;;6.50;87.90;;;;;;5029794;28;20198;-80
2022/12/30 01:17:42;;;;;;;38.30;19.50;;;6.50;87.90;;;;;;5022396;28;20656;-79
2022/12/30 01:20:11;;;;;;;39.88;21.52;;;6.50;87.90;;;;;;5015707;28;21004;-79
2022/12/30 01:22:39;;;;;;;39.20;18.53;;;6.50;88.50;;;;;;5017915;28;20205;-77
2022/12/30 01:25:08;;;;;;;34.33;19.47;;;6.40;88.60;;;;;;5004629;28;20210;-79
2022/12/30 01:27:38;;;;;;;38.30;19.47;;;6.40;88.60;;;;;;5015143;28;20222;-79
2022/12/30 01:30:08;;;;;;;37.90;18.60;;;6.40;88.70;;;;;;5008172;28;20590;-78
2022/12/30 01:32:36;;;;;;;35.77;17.53;;;6.40;88.90;;;;;;5007355;28;20209;-78
2022/12/30 01:35:05;;;;;;;40.90;20.40;;;6.40;88.90;;;;;;5010152;28;20850;-79
2022/12/30 01:37:34;;;;;;;32.70;17.63;;;6.40;88.90;;;;;;5011769;28;20197;-80
2022/12/30 01:40:02;;;;;;;33.80;16.80;;;6.40;88.90;;;;;;5017820;28;20615;-80
2022/12/30 01:42:36;;;;;;;38.03;19.23;;;6.40;88.90;;;;;;5014006;28;20196;-79
2022/12/30 01:45:17;;;;;;;35.77;18.10;;;6.40;88.90;;;;;;5009629;28;20198;-80
2022/12/30 01:47:54;;;;;;;34.00;17.87;;;6.40;88.80;;;;;;5010851;28;21044;-79
2022/12/30 01:50:31;;;;;;;38.17;18.77;;;6.40;88.80;;;;;;5019170;28;20207;-80
2022/12/30 01:53:05;;;;;;;37.40;18.87;;;6.40;88.80;;;;;;5016933;28;20200;-80
2022/12/30 01:55:38;;;;;;;35.67;18.00;;;6.40;88.60;;;;;;5013800;28;20217;-80
2022/12/30 01:58:11;;;;;;;35.10;18.03;;;6.40;88.80;;;;;;5006950;28;20813;-79
2022/12/30 02:00:40;;;;;;;32.70;17.47;;;6.30;88.80;;;;;;5014306;28;20200;-80
2022/12/30 02:03:09;;;;;;;38.70;18.77;;;6.30;88.90;;;;;;5010964;28;20198;-78
2022/12/30 02:05:40;;;;;;;44.23;19.60;;;6.30;89.10;;;;;;5007045;28;20219;-79
2022/12/30 02:08:11;;;;;;;38.53;19.30;;;6.30;89.10;;;;;;5009533;28;20735;-79
2022/12/30 02:10:42;;;;;;;47.83;20.43;;;6.30;89.30;;;;;;5010918;28;20208;-80
2022/12/30 02:13:12;;;;;;;42.20;20.50;;;6.20;89.30;;;;;;5009363;28;20242;-80
2022/12/30 02:15:57;;;;;;;38.80;18.73;;;6.20;89.40;;;;;;5003849;28;20222;-80
2022/12/30 02:18:36;;;;;;;41.17;20.23;;;6.20;89.50;;;;;;5021401;28;20293;-80
2022/12/30 02:21:34;;;;;;;37.37;18.07;;;6.20;89.60;;;;;;5026400;28;20249;-80
2022/12/30 02:24:34;;;;;;;38.53;19.57;;;6.20;89.60;;;;;;5019448;28;20392;-80
2022/12/30 02:27:47;;;;;;;37.73;19.07;;;6.20;89.60;;;;;;5020977;28;20213;-78
2022/12/30 02:30:21;;;;;;;37.43;17.70;;;6.10;89.60;;;;;;5008102;28;20235;-80
2022/12/30 02:33:05;;;;;;;43.23;19.23;;;6.10;89.50;;;;;;5024302;28;20229;-80
2022/12/30 02:35:45;;;;;;;50.30;20.17;;;6.10;89.50;;;;;;5029786;28;20219;-80
2022/12/30 02:38:24;;;;;;;39.43;19.53;;;6.10;89.60;;;;;;5030280;28;20197;-79
2022/12/30 02:46:37;;;;;;;43.13;20.50;;;6.00;90.00;;;;;;5030251;28;20514;-80
2022/12/30 02:49:11;;;;;;;39.73;18.60;;;6.00;90.10;;;;;;5032669;28;20200;-80
2022/12/30 02:54:27;;;;;;;38.27;20.50;;;5.90;90.10;;;;;;5029716;28;20258;-78
2022/12/30 02:56:56;;;;;;;39.53;19.40;;;5.90;90.20;;;;;;5029872;28;20330;-79
2022/12/30 03:05:35;;;;;;;42.90;20.10;;;5.90;90.50;;;;;;4996541;28;20213;-80
2022/12/30 03:08:13;;;;;;;35.57;18.67;;;5.90;90.40;;;;;;5031029;28;20199;-80
2022/12/30 03:13:40;;;;;;;38.43;19.33;;;5.80;90.40;;;;;;5024261;28;20202;-80
2022/12/30 03:16:14;;;;;;;39.73;19.33;;;5.80;90.70;;;;;;5028255;28;20191;-80
2022/12/30 03:18:44;;;;;;;34.83;18.20;;;5.80;90.30;;;;;;5021763;28;20335;-80
2022/12/30 03:21:14;;;;;;;45.03;20.37;;;5.80;90.30;;;;;;5019931;28;20649;-80
2022/12/30 03:29:27;;;;;;;44.90;19.50;;;5.90;90.20;;;;;;5012719;28;20247;-80
2022/12/30 03:31:56;;;;;;;43.63;19.87;;;5.80;90.10;;;;;;5018164;28;20199;-80
2022/12/30 03:34:25;;;;;;;42.57;18.77;;;5.80;90.10;;;;;;5012838;28;20653;-80
2022/12/30 03:37:00;;;;;;;37.87;19.53;;;5.80;90.00;;;;;;5016625;28;20257;-80
2022/12/30 03:39:34;;;;;;;38.33;19.70;;;5.80;90.00;;;;;;5016423;28;20203;-79
2022/12/30 03:42:04;;;;;;;39.00;18.57;;;5.80;90.00;;;;;;5011835;28;20195;-79
2022/12/30 03:44:33;;;;;;;37.87;19.50;;;5.80;90.00;;;;;;5002973;28;20193;-79
2022/12/30 03:47:02;;;;;;;44.28;22.77;;;5.70;90.00;;;;;;5009154;28;20446;-80
2022/12/30 03:49:30;;;;;;;38.77;19.80;;;5.80;90.10;;;;;;5018497;28;20542;-79
2022/12/30 03:52:00;;;;;;;44.50;19.70;;;5.70;90.10;;;;;;5018722;28;20251;-79
2022/12/30 03:54:32;;;;;;;39.80;20.07;;;5.70;90.10;;;;;;5008504;28;20191;-79
2022/12/30 03:57:00;;;;;;;41.67;19.00;;;5.70;90.00;;;;;;5012985;28;20256;-80
2022/12/30 03:59:29;;;;;;;41.47;20.13;;;5.70;90.00;;;;;;5010155;28;20228;-80
2022/12/30 04:01:57;;;;;;;39.43;20.17;;;5.70;90.00;;;;;;5014971;28;20661;-80
2022/12/30 04:04:25;;;;;;;41.47;18.77;;;5.70;89.90;;;;;;5011413;28;20204;-79
2022/12/30 04:06:54;;;;;;;42.00;19.70;;;5.70;89.90;;;;;;5019778;28;20266;-80
2022/12/30 04:09:24;;;;;;;46.80;20.93;;;5.70;89.90;;;;;;5019140;28;20598;-79
2022/12/30 04:11:52;;;;;;;39.40;19.80;;;5.60;90.00;;;;;;5019655;28;20204;-79
2022/12/30 04:14:20;;;;;;;45.33;21.87;;;5.60;90.10;;;;;;5011040;28;20272;-80
2022/12/30 04:16:48;;;;;;;41.80;20.67;;;5.60;90.10;;;;;;5010594;28;20250;-79
2022/12/30 04:19:17;;;;;;;43.20;19.90;;;5.50;90.10;;;;;;5013577;28;20277;-78
2022/12/30 04:21:45;;;;;;;44.47;21.50;;;5.50;90.20;;;;;;5010487;28;20278;-78
2022/12/30 04:24:15;;;;;;;35.77;18.23;;;5.50;90.20;;;;;;5003372;28;20224;-79
2022/12/30 04:26:45;;;;;;;38.90;20.43;;;5.50;90.20;;;;;;5010882;28;20270;-80
2022/12/30 04:29:13;;;;;;;42.30;19.53;;;5.50;90.20;;;;;;5012495;28;20204;-79
2022/12/30 04:31:41;;;;;;;41.57;20.87;;;5.50;90.20;;;;;;5004013;28;20220;-80
2022/12/30 04:34:14;;;;;;;44.58;23.42;;;5.40;90.10;;;;;;5013050;28;20438;-80
2022/12/30 04:36:43;;;;;;;42.27;20.33;;;5.40;90.20;;;;;;5010953;28;20188;-79
2022/12/30 04:39:11;;;;;;;41.13;20.27;;;5.40;90.20;;;;;;5015422;28;20661;-79
2022/12/30 04:41:40;;;;;;;39.67;20.13;;;5.40;90.20;;;;;;5012211;28;20192;-79
2022/12/30 04:44:09;;;;;;;39.13;20.03;;;5.40;90.10;;;;;;5013004;28;20207;-79
2022/12/30 04:46:38;;;;;;;41.87;19.47;;;5.40;90.10;;;;;;5012035;28;20662;-78
2022/12/30 04:49:06;;;;;;;45.77;21.50;;;5.40;90.10;;;;;;5009199;28;20302;-80
2022/12/30 04:51:34;;;;;;;41.80;20.20;;;5.40;90.10;;;;;;5015046;28;20196;-80
2022/12/30 04:54:03;;;;;;;41.90;19.90;;;5.30;90.00;;;;;;5010586;28;20204;-80
2022/12/30 04:56:31;;;;;;;34.60;19.53;;;5.30;90.00;;;;;;5006099;28;20227;-80
2022/12/30 04:58:59;;;;;;;37.53;19.20;;;5.30;90.40;;;;;;5019762;28;20262;-80
2022/12/30 05:01:29;;;;;;;37.83;19.53;;;5.30;90.40;;;;;;5014296;28;20546;-80
2022/12/30 05:03:58;;;;;;;41.00;19.50;;;5.30;90.00;;;;;;5011363;28;20197;-81
2022/12/30 05:06:26;;;;;;;42.83;19.33;;;5.30;90.00;;;;;;5008191;28;20645;-80
2022/12/30 05:08:54;;;;;;;39.53;20.13;;;5.30;90.00;;;;;;5015223;28;20239;-79
2022/12/30 05:11:23;;;;;;;41.00;20.83;;;5.20;90.00;;;;;;5013260;28;20254;-80
2022/12/30 05:13:51;;;;;;;53.33;21.27;;;5.20;90.00;;;;;;5010078;28;20262;-80
2022/12/30 05:16:19;;;;;;;38.37;19.70;;;5.20;90.00;;;;;;5014903;28;20196;-80
2022/12/30 05:18:49;;;;;;;44.63;20.00;;;5.30;90.00;;;;;;5005918;28;20228;-80
2022/12/30 05:21:17;;;;;;;41.70;20.20;;;5.20;90.10;;;;;;5003226;28;20212;-80
2022/12/30 05:26:31;;;;;;;36.63;18.87;;;5.20;90.20;;;;;;5006536;28;20200;-79
2022/12/30 05:29:02;;;;;;;43.70;20.77;;;5.20;90.20;;;;;;5009906;28;20289;-80
2022/12/30 05:31:30;;;;;;;47.77;20.50;;;5.10;90.20;;;;;;5014139;28;20231;-81
2022/12/30 05:34:00;;;;;;;39.70;20.40;;;5.20;90.20;;;;;;5009261;28;20855;-82
2022/12/30 05:36:36;;;;;;;41.47;19.80;;;5.20;90.20;;;;;;4999338;28;20572;-80
2022/12/30 05:39:04;;;;;;;39.10;19.37;;;5.20;90.20;;;;;;5006089;28;20251;-80
2022/12/30 05:41:33;;;;;;;39.23;20.03;;;5.20;90.20;;;;;;5010079;28;20648;-80
2022/12/30 05:44:01;;;;;;;37.77;18.43;;;5.20;90.20;;;;;;5008685;28;20619;-81
2022/12/30 05:46:29;;;;;;;40.37;19.83;;;5.20;90.20;;;;;;5020117;28;20680;-80
2022/12/30 05:48:59;;;;;;;37.83;20.13;;;5.20;90.20;;;;;;5007104;28;20248;-80
2022/12/30 05:51:27;;;;;;;42.53;19.17;;;5.30;90.20;;;;;;5008594;28;20254;-79
2022/12/30 05:53:56;;;;;;;45.33;20.67;;;5.30;90.20;;;;;;5010560;28;20207;-80
2022/12/30 05:56:24;;;;;;;40.60;20.08;;;5.30;90.20;;;;;;5016386;28;20505;-79
2022/12/30 05:58:53;;;;;;;42.17;20.40;;;5.30;90.10;;;;;;5003861;28;20207;-79
2022/12/30 06:01:21;;;;;;;34.63;18.77;;;5.30;90.10;;;;;;5013655;28;20199;-79
2022/12/30 06:03:50;;;;;;;41.17;19.03;;;5.30;90.10;;;;;;5015155;28;20215;-78
2022/12/30 06:06:20;;;;;;;41.53;21.33;;;5.30;90.10;;;;;;5010662;28;20291;-79
2022/12/30 06:08:48;;;;;;;39.53;21.50;;;5.30;90.10;;;;;;5006661;28;20263;-78
2022/12/30 06:11:16;;;;;;;42.55;23.20;;;5.30;90.10;;;;;;5004955;28;20434;-78
2022/12/30 06:13:45;;;;;;;38.83;20.00;;;5.20;90.20;;;;;;4967212;28;20200;-79
2022/12/30 06:16:13;;;;;;;38.87;19.20;;;5.20;90.20;;;;;;4998761;28;20282;-81
2022/12/30 06:18:41;;;;;;;41.77;19.80;;;5.20;90.20;;;;;;5000636;28;20341;-80
2022/12/30 06:21:10;;;;;;;43.70;20.10;;;5.20;90.20;;;;;;5008862;28;20200;-79
2022/12/30 06:23:40;;;;;;;39.73;20.20;;;5.20;90.10;;;;;;5006921;28;20244;-79
2022/12/30 06:26:08;;;;;;;42.93;20.93;;;5.20;90.10;;;;;;5010673;28;20204;-79
2022/12/30 06:28:36;;;;;;;43.37;19.70;;;5.20;90.10;;;;;;5005475;28;20495;-78
2022/12/30 06:31:05;;;;;;;43.83;19.57;;;5.20;90.10;;;;;;5010468;28;20196;-78
2022/12/30 06:33:33;;;;;;;37.90;20.23;;;5.20;90.10;;;;;;5003309;28;20300;-79
2022/12/30 06:36:01;;;;;;;43.33;21.90;;;5.20;90.00;;;;;;5001047;28;20232;-78
2022/12/30 06:38:30;;;;;;;38.67;19.77;;;5.20;90.00;;;;;;5006518;28;20195;-79
2022/12/30 06:40:59;;;;;;;32.80;18.57;;;5.20;90.00;;;;;;5014608;28;20262;-79
2022/12/30 06:43:28;;;;;;;37.33;19.20;;;5.30;90.00;;;;;;5016251;28;20196;-78
2022/12/30 06:45:57;;;;;;;43.50;19.63;;;5.30;90.00;;;;;;5008767;28;20196;-78
2022/12/30 06:48:25;;;;;;;38.60;19.77;;;5.30;90.00;;;;;;5008072;28;20216;-79
2022/12/30 06:51:01;;;;;;;31.70;17.87;;;5.30;90.00;;;;;;5013111;28;20198;-79
2022/12/30 06:53:32;;;;;;;37.33;20.37;;;5.40;90.00;;;;;;5006515;28;20200;-79
2022/12/30 06:56:02;;;;;;;37.17;18.80;;;5.40;90.00;;;;;;5007937;28;20211;-78
2022/12/30 06:58:34;;;;;;;43.13;20.33;;;5.40;89.90;;;;;;5007134;28;20193;-80
2022/12/30 07:01:02;;;;;;;37.70;18.57;;;5.40;89.80;;;;;;5014129;28;20196;-79
2022/12/30 07:03:31;;;;;;;39.23;19.77;;;5.50;89.80;;;;;;5007477;28;20212;-80
2022/12/30 07:05:59;;;;;;;43.20;19.70;;;5.50;89.80;;;;;;5010372;28;20242;-80
2022/12/30 07:08:28;;;;;;;40.33;18.67;;;5.60;89.80;;;;;;5005318;28;20220;-79
2022/12/30 07:10:56;;;;;;;36.70;18.93;;;5.60;89.70;;;;;;5010917;28;20695;-79
2022/12/30 07:13:28;;;;;;;36.90;17.37;;;5.60;89.60;;;;;;5007768;28;20213;-79
2022/12/30 07:15:56;;;;;;;37.50;19.77;;;5.70;89.70;;;;;;5002329;28;21899;-80
2022/12/30 07:18:24;;;;;;;40.70;18.80;;;5.80;89.70;;;;;;5000982;28;20229;-78
2022/12/30 07:20:53;;;;;;;40.67;18.90;;;5.80;89.50;;;;;;5005708;28;20207;-78
2022/12/30 07:23:22;;;;;;;39.80;19.53;;;5.90;89.50;;;;;;5010626;28;20208;-80
2022/12/30 07:25:50;;;;;;;38.17;19.50;;;5.90;89.50;;;;;;5021490;28;20250;-79
2022/12/30 07:28:18;;;;;;;43.73;20.10;;;5.90;89.40;;;;;;5009141;28;20205;-79
2022/12/30 07:30:50;;;;;;;37.60;19.47;;;5.90;89.40;;;;;;5011894;28;20733;-79
2022/12/30 07:33:18;;;;;;;34.63;18.13;;;6.00;89.40;;;;;;5009078;28;20197;-78
2022/12/30 07:35:47;;;;;;;35.40;18.90;;;6.10;89.40;;;;;;5005826;28;20224;-81
2022/12/30 07:38:16;;;;;;;36.37;18.73;;;6.10;89.40;;;;;;5008223;28;20545;-79
2022/12/30 07:40:44;;;;;;;36.90;19.10;;;6.10;89.50;;;;;;5006953;28;20566;-80
2022/12/30 07:43:12;;;;;;;38.40;19.93;;;6.20;89.70;;;;;;5005446;28;20203;-80
2022/12/30 07:45:41;;;;;;;41.23;19.27;;;6.30;89.70;;;;;;5014686;28;20197;-80
2022/12/30 07:48:11;;;;;;;38.97;19.07;;;6.40;89.80;;;;;;5008420;28;20307;-80
2022/12/30 07:50:39;;;;;;;37.90;18.83;;;6.50;89.80;;;;;;5014831;28;20233;-79
2022/12/30 07:53:08;;;;;;;36.07;18.80;;;6.60;89.70;;;;;;5008219;28;20545;-79
2022/12/30 07:55:40;;;;;;;39.90;18.90;;;6.70;89.50;;;;;;5018035;28;20201;-79
2022/12/30 07:58:08;;;;;;;36.37;19.13;;;6.70;89.30;;;;;;5006558;28;20250;-79
2022/12/30 08:00:36;;;;;;;39.30;19.23;;;6.80;89.20;;;;;;5012676;28;20212;-79
2022/12/30 08:03:05;;;;;;;34.47;19.07;;;6.90;89.10;;;;;;5007912;28;20246;-80
2022/12/30 08:05:35;;;;;;;42.97;21.10;;;6.90;89.10;;;;;;5008675;28;20439;-79
2022/12/30 08:08:03;;;;;;;41.53;18.17;;;7.00;89.20;;;;;;5011928;28;20209;-78
2022/12/30 08:10:32;;;;;;;35.53;18.43;;;7.10;89.10;;;;;;5006952;28;20255;-80
2022/12/30 08:13:00;;;;;;;35.37;18.03;;;7.10;89.10;;;;;;5008139;28;20207;-82
2022/12/30 08:15:28;;;;;;;33.13;18.10;;;7.30;89.10;;;;;;5015498;28;20196;-79
2022/12/30 08:17:57;;;;;;;37.73;18.50;;;7.30;89.00;;;;;;5012483;28;20285;-81
2022/12/30 08:20:25;;;;;;;38.70;17.37;;;7.40;88.70;;;;;;5011980;28;20242;-79
2022/12/30 08:22:55;;;;;;;32.00;17.13;;;7.50;88.60;;;;;;5015158;28;20546;-80
2022/12/30 08:25:23;;;;;;;31.30;18.00;;;7.50;88.30;;;;;;5008447;28;20724;-80
2022/12/30 08:27:52;;;;;;;32.97;17.30;;;7.60;88.40;;;;;;5011368;28;20200;-79
2022/12/30 08:30:20;;;;;;;32.63;17.13;;;7.60;88.10;;;;;;5005988;28;20668;-81
2022/12/30 08:32:48;;;;;;;35.80;17.30;;;7.70;87.90;;;;;;5010030;28;20715;-81
2022/12/30 08:35:16;;;;;;;32.33;16.80;;;7.80;88.10;;;;;;5011244;28;20262;-80
2022/12/30 08:37:45;;;;;;;34.30;17.57;;;7.80;88.10;;;;;;5007581;28;20653;-79
2022/12/30 08:40:15;;;;;;;32.57;16.47;;;7.90;87.80;;;;;;5011832;28;20196;-81
2022/12/30 08:42:43;;;;;;;35.53;17.93;;;8.00;88.00;;;;;;5006224;28;20254;-79
2022/12/30 08:45:11;;;;;;;29.97;16.87;;;8.10;88.10;;;;;;5006380;28;20578;-81
2022/12/30 08:47:40;;;;;;;32.57;16.67;;;8.20;87.90;;;;;;5013439;28;20258;-77
2022/12/30 08:50:09;;;;;;;32.20;17.00;;;8.30;87.70;;;;;;5009506;28;20220;-78
2022/12/30 08:52:38;;;;;;;32.33;17.47;;;8.30;87.50;;;;;;5012645;28;20208;-80
2022/12/30 08:55:07;;;;;;;31.03;15.30;;;8.40;87.30;;;;;;5011800;28;20567;-81
2022/12/30 08:57:38;;;;;;;33.63;15.50;;;8.50;87.40;;;;;;5008895;28;20200;-78
2022/12/30 09:00:08;;;;;;;33.03;16.13;;;8.50;86.70;;;;;;5012215;28;20196;-81
2022/12/30 09:02:36;;;;;;;41.43;17.83;;;8.60;86.60;;;;;;5012864;28;20201;-78
2022/12/30 09:05:05;;;;;;;31.77;15.30;;;8.60;86.30;;;;;;5009473;28;20208;-81
2022/12/30 09:07:33;;;;;;;31.80;15.80;;;8.70;86.60;;;;;;5012895;28;20262;-81
2022/12/30 09:10:22;;;;;;;28.37;15.33;;;8.80;86.40;;;;;;5010943;28;20299;-81
2022/12/30 09:12:51;;;;;;;32.90;17.10;;;8.80;86.30;;;;;;5009226;28;20649;-82
2022/12/30 09:15:20;;;;;;;32.73;15.63;;;8.90;86.30;;;;;;5007324;28;20250;-80
2022/12/30 09:17:48;;;;;;;34.70;17.77;;;9.00;86.40;;;;;;5006905;28;20286;-80
2022/12/30 09:20:17;;;;;;;30.40;14.73;;;9.10;86.20;;;;;;5008083;28;20192;-81
2022/12/30 09:22:50;;;;;;;32.50;15.57;;;9.20;86.10;;;;;;5003126;28;20208;-79
2022/12/30 09:25:18;;;;;;;26.77;14.27;;;9.20;85.80;;;;;;5012027;28;20200;-77
2022/12/30 09:27:47;;;;;;;25.40;14.63;;;9.20;85.10;;;;;;5011875;28;20208;-77
2022/12/30 09:30:16;;;;;;;28.97;14.43;;;9.30;84.90;;;;;;5011986;28;20263;-79
2022/12/30 09:32:45;;;;;;;28.37;14.43;;;9.40;85.20;;;;;;5012574;28;20238;-79
2022/12/30 09:35:13;;;;;;;29.83;14.17;;;9.50;85.10;;;;;;5007431;28;20673;-81
2022/12/30 09:37:41;;;;;;;26.10;13.23;;;9.50;84.90;;;;;;5007263;28;20196;-80
2022/12/30 09:40:14;;;;;;;26.87;13.73;;;9.60;84.60;;;;;;5012270;28;20201;-81
2022/12/30 09:45:42;;;;;;;30.10;14.57;;;9.70;83.70;;;;;;5003165;28;20200;-80
2022/12/30 09:48:16;;;;;;;26.43;14.10;;;9.80;83.90;;;;;;5003669;28;20331;-80
2022/12/30 09:50:50;;;;;;;28.83;14.07;;;9.90;83.80;;;;;;5012130;28;20290;-82
2022/12/30 09:53:26;;;;;;;26.83;13.40;;;10.00;83.80;;;;;;5009728;28;20206;-80
2022/12/30 09:56:02;;;;;;;26.07;12.87;;;10.00;83.50;;;;;;5012249;28;20227;-79
2022/12/30 09:58:33;;;;;;;27.23;12.73;;;10.10;82.80;;;;;;5010744;28;20272;-80
2022/12/30 10:01:12;;;;;;;25.27;12.87;;;10.10;82.70;;;;;;5010736;28;20204;-80
2022/12/30 10:03:40;;;;;;;22.43;12.13;;;10.20;82.60;;;;;;5008684;28;20207;-81
2022/12/30 10:06:30;;;;;;;20.83;12.33;;;10.30;83.00;;;;;;5008624;28;20200;-81
2022/12/30 10:09:31;;;;;;;23.37;12.20;;;10.30;82.90;;;;;;5009868;28;20200;-80
2022/12/30 10:12:15;;;;;;;20.53;11.53;;;10.40;82.90;;;;;;5008764;28;20215;-80
2022/12/30 10:14:53;;;;;;;22.50;11.30;;;10.50;82.60;;;;;;5008693;28;20555;-79
2022/12/30 10:17:38;;;;;;;20.53;10.47;;;10.50;82.00;;;;;;5004728;28;20235;-79
2022/12/30 10:20:19;;;;;;;21.30;10.00;;;10.60;81.10;;;;;;5010789;28;20201;-80
2022/12/30 10:22:57;;;;;;;18.00;10.27;;;10.60;80.80;;;;;;5011758;28;20258;-80
2022/12/30 10:25:30;;;;;;;22.10;11.17;;;10.70;80.60;;;;;;5010853;28;20796;-80
2022/12/30 10:27:59;;;;;;;21.77;10.43;;;10.70;79.30;;;;;;5010025;28;20200;-79
2022/12/30 10:30:35;;;;;;;20.73;9.77;;;10.80;79.20;;;;;;5012481;28;20267;-80
2022/12/30 10:33:10;;;;;;;18.57;9.30;;;10.80;78.90;;;;;;5012385;28;20242;-80
2022/12/30 10:35:40;;;;;;;18.47;10.20;;;10.90;79.00;;;;;;5006571;28;20249;-80
2022/12/30 10:38:13;;;;;;;20.20;10.03;;;11.00;79.30;;;;;;5008270;28;20271;-80
2022/12/30 10:40:51;;;;;;;20.27;9.83;;;11.10;79.70;;;;;;5011770;28;20236;-79
2022/12/30 10:43:36;;;;;;;19.17;10.77;;;11.10;79.50;;;;;;5011340;28;20220;-82
2022/12/30 10:46:20;;;;;;;21.10;9.90;;;11.20;79.90;;;;;;5009897;28;20207;-80
2022/12/30 10:49:03;;;;;;;22.00;10.80;;;11.30;80.10;;;;;;5007540;28;20205;-79
2022/12/30 10:51:32;;;;;;;19.47;10.27;;;11.40;78.90;;;;;;5010445;28;20228;-79
2022/12/30 10:54:02;;;;;;;17.57;9.17;;;11.40;78.80;;;;;;5007992;28;20259;-80
2022/12/30 10:56:32;;;;;;;18.13;9.67;;;11.60;79.30;;;;;;5007359;28;20564;-80
2022/12/30 10:59:07;;;;;;;17.90;9.87;;;11.60;79.40;;;;;;5013002;28;20262;-80
2022/12/30 11:01:37;;;;;;;17.70;9.00;;;11.70;79.60;;;;;;5007346;28;20216;-80
2022/12/30 11:04:07;;;;;;;19.20;9.77;;;11.80;79.30;;;;;;5009123;28;20291;-78
2022/12/30 11:06:37;;;;;;;20.77;9.50;;;11.80;79.40;;;;;;5015126;28;20200;-79
2022/12/30 11:09:26;;;;;;;20.40;10.13;;;11.90;79.10;;;;;;5012345;28;20219;-80
2022/12/30 11:15:12;;;;;;;16.53;8.50;;;12.00;79.10;;;;;;5012643;28;20196;-80
2022/12/30 11:17:46;;;;;;;19.50;8.97;;;12.10;79.10;;;;;;5011494;28;20236;-80
2022/12/30 11:20:30;;;;;;;19.87;9.37;;;12.10;79.50;;;;;;5016501;28;20204;-80
2022/12/30 11:23:00;;;;;;;23.10;11.60;;;12.20;79.60;;;;;;5009979;28;20203;-80
2022/12/30 11:25:30;;;;;;;18.43;10.23;;;12.30;79.90;;;;;;5015813;28;20251;-80
2022/12/30 11:28:01;;;;;;;21.93;9.83;;;12.40;80.00;;;;;;5006482;28;21510;-82
2022/12/30 11:30:32;;;;;;;25.23;11.80;;;12.50;80.10;;;;;;5009327;28;20609;-81
2022/12/30 11:33:03;;;;;;;22.10;11.67;;;12.50;79.80;;;;;;5012404;28;20204;-82
2022/12/30 11:35:43;;;;;;;20.30;11.00;;;12.60;79.80;;;;;;5015439;28;20211;-81
2022/12/30 11:38:32;;;;;;;19.07;10.73;;;12.60;79.90;;;;;;5012816;28;20200;-80
2022/12/30 11:41:20;;;;;;;21.93;10.17;;;12.70;79.80;;;;;;5010036;28;20196;-81
2022/12/30 11:43:50;;;;;;;21.57;11.37;;;12.80;79.80;;;;;;5005478;28;20197;-79
2022/12/30 11:46:20;;;;;;;22.47;11.93;;;12.80;79.50;;;;;;5015082;28;20247;-80
2022/12/30 11:48:52;;;;;;;22.67;11.97;;;12.80;79.40;;;;;;5012710;28;20235;-79
2022/12/30 11:51:24;;;;;;;23.87;12.20;;;12.90;79.60;;;;;;5015706;28;20220;-80
2022/12/30 11:54:05;;;;;;;24.57;11.87;;;12.90;79.30;;;;;;5005770;28;20243;-80
2022/12/30 11:56:34;;;;;;;22.97;11.27;;;12.90;79.50;;;;;;5015600;28;20201;-81
2022/12/30 11:59:10;;;;;;;20.97;11.17;;;13.00;79.70;;;;;;5012840;28;20207;-79
2022/12/30 12:01:44;;;;;;;22.43;11.77;;;13.10;79.60;;;;;;5005944;28;20192;-80
2022/12/30 12:04:35;;;;;;;20.43;11.17;;;13.10;79.70;;;;;;5004404;28;20188;-79
2022/12/30 12:07:19;;;;;;;21.17;12.00;;;13.10;79.70;;;;;;5011933;28;20197;-80
2022/12/30 12:09:51;;;;;;;20.13;10.47;;;13.20;79.60;;;;;;5008363;28;20615;-82
2022/12/30 12:12:24;;;;;;;24.40;11.43;;;13.20;79.20;;;;;;5014758;28;20204;-81
2022/12/30 12:15:09;;;;;;;23.87;11.43;;;13.30;79.30;;;;;;5009626;28;20200;-81
2022/12/30 12:17:45;;;;;;;23.73;12.55;;;13.30;79.00;;;;;;5002668;28;20496;-80
2022/12/30 12:20:22;;;;;;;19.40;11.20;;;13.40;79.30;;;;;;5012419;28;20193;-81
2022/12/30 12:23:13;;;;;;;17.23;10.93;;;13.40;78.90;;;;;;5009038;28;20206;-82
2022/12/30 12:25:47;;;;;;;18.37;9.73;;;13.50;79.20;;;;;;5001681;28;20193;-81
2022/12/30 12:28:15;;;;;;;17.63;10.57;;;13.50;79.20;;;;;;5014923;28;20645;-83
2022/12/30 12:31:13;;;;;;;26.90;11.70;;;13.50;78.90;;;;;;5008312;28;20196;-80
2022/12/30 12:33:48;;;;;;;25.07;11.93;;;13.50;79.20;;;;;;5007886;28;20196;-80
2022/12/30 12:36:34;;;;;;;19.07;11.93;;;13.50;79.20;;;;;;5006304;28;20196;-79
2022/12/30 12:39:10;;;;;;;23.27;11.60;;;13.50;79.00;;;;;;5007754;28;20247;-82
2022/12/30 12:42:00;;;;;;;20.07;11.17;;;13.60;79.20;;;;;;5013040;28;20185;-81
2022/12/30 12:45:06;;;;;;;22.37;11.83;;;13.60;79.20;;;;;;5012430;28;20565;-81
2022/12/30 12:47:51;;;;;;;25.80;11.77;;;13.70;79.20;;;;;;4969103;28;20197;-81
2022/12/30 12:50:35;;;;;;;21.70;11.60;;;13.70;79.00;;;;;;5005655;28;20665;-80
2022/12/30 12:53:22;;;;;;;25.57;12.23;;;13.80;79.20;;;;;;5011046;28;20204;-80
2022/12/30 12:56:11;;;;;;;25.97;13.27;;;13.80;79.10;;;;;;5014385;28;20711;-81
2022/12/30 12:59:01;;;;;;;22.10;12.03;;;13.70;79.10;;;;;;5011427;28;20719;-83
2022/12/30 13:01:37;;;;;;;20.73;11.23;;;13.70;79.20;;;;;;5010395;28;20262;-83
2022/12/30 13:04:20;;;;;;;28.20;13.00;;;13.70;79.30;;;;;;5007666;28;20214;-83
2022/12/30 13:07:00;;;;;;;18.37;11.63;;;13.70;79.40;;;;;;5010934;28;20192;-83
2022/12/30 13:09:52;;;;;;;22.43;12.53;;;13.70;79.50;;;;;;5006417;28;20196;-83
2022/12/30 13:12:48;;;;;;;22.27;13.00;;;13.70;79.70;;;;;;5009591;28;20220;-81
2022/12/30 13:15:23;;;;;;;22.57;12.63;;;13.70;80.00;;;;;;4965628;28;20212;-83
2022/12/30 13:17:55;;;;;;;24.57;12.47;;;13.70;80.00;;;;;;5009865;28;20721;-81
2022/12/30 13:20:29;;;;;;;19.90;11.93;;;13.70;80.10;;;;;;5009164;28;20649;-82
2022/12/30 13:23:03;;;;;;;22.80;12.77;;;13.80;80.20;;;;;;5007623;28;20453;-83
2022/12/30 13:25:34;;;;;;;22.50;13.20;;;13.70;80.10;;;;;;5017163;28;20192;-83
2022/12/30 13:28:06;;;;;;;23.47;13.63;;;13.70;80.20;;;;;;5008972;28;20205;-82
2022/12/30 13:30:43;;;;;;;28.38;14.07;;;13.70;80.10;;;;;;5008484;28;20456;-82
2022/12/30 13:33:19;;;;;;;23.97;12.97;;;13.90;79.90;;;;;;5005774;28;20262;-82
2022/12/30 13:35:59;;;;;;;24.13;14.03;;;14.60;78.70;;;;;;5012533;28;20195;-81
2022/12/30 13:38:40;;;;;;;26.77;14.13;;;15.20;76.90;;;;;;5001309;28;20193;-81
2022/12/30 13:41:38;;;;;;;23.53;13.87;;;15.40;75.80;;;;;;5006884;28;20238;-83
2022/12/30 13:44:14;;;;;;;28.73;14.70;;;15.70;76.00;;;;;;5007426;28;20724;-83
2022/12/30 13:46:49;;;;;;;25.43;14.03;;;17.10;70.60;;;;;;5009773;28;20196;-83
2022/12/30 13:49:26;;;;;;;23.90;14.03;;;17.70;69.50;;;;;;5009494;28;20196;-81
2022/12/30 13:52:22;;;;;;;23.70;13.43;;;18.60;66.50;;;;;;5081222;27;20805;-83
2022/12/30 13:54:52;;;;;;;24.40;14.57;;;19.20;64.50;;;;;;5082818;28;20185;-81
2022/12/30 13:57:31;;;;;;;26.67;14.10;;;18.80;64.60;;;;;;5087287;28;20202;-81
2022/12/30 14:00:28;;;;;;;24.47;13.63;;;18.10;65.70;;;;;;5077537;28;20194;-82
2022/12/30 14:03:06;;;;;;;24.70;14.37;;;17.70;66.10;;;;;;5080562;28;20657;-80
2022/12/30 14:05:58;;;;;;;27.30;14.13;;;17.60;66.20;;;;;;5093305;28;20224;-82
2022/12/30 14:08:49;;;;;;;23.47;13.77;;;17.50;66.20;;;;;;5084442;28;20838;-81